sensor_id;sensor_type;location;lat;lon;timestamp;temperature;humidity
4054;DHT22;2042;47.956;9.222;2022-11-15T00:01:25;2.50;17.10
4054;DHT22;2042;47.956;9.222;2022-11-15T00:03:51;2.40;17.00
4054;DHT22;2042;47.956;9.222;2022-11-15T00:06:17;2.40;17.00
4054;DHT22;2042;47.956;9.222;2022-11-15T00:08:43;2.40;17.10
4054;DHT22;2042;47.956;9.222;2022-11-15T00:11:11;2.40;17.10
4054;DHT22;2042;47.956;9.222;2022-11-15T00:13:37;2.40;17.10
4054;DHT22;2042;47.956;9.222;2022-11-15T00:16:03;2.50;17.10
4054;DHT22;2042;47.956;9.222;2022-11-15T00:18:30;2.50;17.20
4054;DHT22;2042;47.956;9.222;2022-11-15T00:21:02;2.50;17.20
4054;DHT22;2042;47.956;9.222;2022-11-15T00:23:28;2.40;17.10
4054;DHT22;2042;47.956;9.222;2022-11-15T00:25:57;2.30;17.00
4054;DHT22;2042;47.956;9.222;2022-11-15T00:28:23;2.30;17.00
4054;DHT22;2042;47.956;9.222;2022-11-15T00:30:49;2.30;17.00
4054;DHT22;2042;47.956;9.222;2022-11-15T00:33:15;2.30;17.00
4054;DHT22;2042;47.956;9.222;2022-11-15T00:35:40;2.20;16.90
4054;DHT22;2042;47.956;9.222;2022-11-15T00:38:06;2.20;16.80
4054;DHT22;2042;47.956;9.222;2022-11-15T00:40:32;2.10;16.80
4054;DHT22;2042;47.956;9.222;2022-11-15T00:42:58;2.10;16.70
4054;DHT22;2042;47.956;9.222;2022-11-15T00:45:24;2.00;16.50
4054;DHT22;2042;47.956;9.222;2022-11-15T00:47:50;1.90;16.40
4054;DHT22;2042;47.956;9.222;2022-11-15T00:50:16;1.90;16.40
4054;DHT22;2042;47.956;9.222;2022-11-15T00:52:42;1.80;16.40
4054;DHT22;2042;47.956;9.222;2022-11-15T00:55:14;1.80;16.40
4054;DHT22;2042;47.956;9.222;2022-11-15T00:57:40;1.70;16.30
4054;DHT22;2042;47.956;9.222;2022-11-15T01:00:06;1.70;16.40
4054;DHT22;2042;47.956;9.222;2022-11-15T01:02:32;1.70;16.30
4054;DHT22;2042;47.956;9.222;2022-11-15T01:04:58;1.70;16.30
4054;DHT22;2042;47.956;9.222;2022-11-15T01:07:24;1.70;16.30
4054;DHT22;2042;47.956;9.222;2022-11-15T01:09:49;1.70;16.30
4054;DHT22;2042;47.956;9.222;2022-11-15T01:12:15;1.60;16.20
4054;DHT22;2042;47.956;9.222;2022-11-15T01:14:41;1.60;16.20
4054;DHT22;2042;47.956;9.222;2022-11-15T01:17:06;1.60;16.20
4054;DHT22;2042;47.956;9.222;2022-11-15T01:19:32;1.50;16.10
4054;DHT22;2042;47.956;9.222;2022-11-15T01:21:57;1.50;16.10
4054;DHT22;2042;47.956;9.222;2022-11-15T01:24:23;1.50;16.20
4054;DHT22;2042;47.956;9.222;2022-11-15T01:26:49;1.50;16.20
4054;DHT22;2042;47.956;9.222;2022-11-15T01:29:14;1.50;16.20
4054;DHT22;2042;47.956;9.222;2022-11-15T01:31:40;1.40;16.10
4054;DHT22;2042;47.956;9.222;2022-11-15T01:34:05;1.40;16.10
4054;DHT22;2042;47.956;9.222;2022-11-15T01:36:31;1.40;16.10
4054;DHT22;2042;47.956;9.222;2022-11-15T01:38:58;1.40;16.00
4054;DHT22;2042;47.956;9.222;2022-11-15T01:41:27;1.30;16.00
4054;DHT22;2042;47.956;9.222;2022-11-15T01:43:55;1.30;15.90
4054;DHT22;2042;47.956;9.222;2022-11-15T01:46:26;1.30;15.90
4054;DHT22;2042;47.956;9.222;2022-11-15T01:48:53;1.20;15.90
4054;DHT22;2042;47.956;9.222;2022-11-15T01:51:24;1.20;15.90
4054;DHT22;2042;47.956;9.222;2022-11-15T01:53:52;1.20;15.90
4054;DHT22;2042;47.956;9.222;2022-11-15T01:56:23;1.20;16.00
4054;DHT22;2042;47.956;9.222;2022-11-15T01:58:50;1.20;16.00
4054;DHT22;2042;47.956;9.222;2022-11-15T02:01:16;1.30;16.00
4054;DHT22;2042;47.956;9.222;2022-11-15T02:03:58;1.30;16.00
4054;DHT22;2042;47.956;9.222;2022-11-15T02:06:24;1.30;16.10
4054;DHT22;2042;47.956;9.222;2022-11-15T02:08:51;1.40;16.20
4054;DHT22;2042;47.956;9.222;2022-11-15T02:11:16;1.40;16.20
4054;DHT22;2042;47.956;9.222;2022-11-15T02:13:43;1.50;16.20
4054;DHT22;2042;47.956;9.222;2022-11-15T02:18:57;1.60;16.30
4054;DHT22;2042;47.956;9.222;2022-11-15T02:29:32;1.70;16.40
4054;DHT22;2042;47.956;9.222;2022-11-15T02:32:06;1.70;16.40
4054;DHT22;2042;47.956;9.222;2022-11-15T02:37:39;1.70;16.30
4054;DHT22;2042;47.956;9.222;2022-11-15T02:40:28;1.70;16.30
4054;DHT22;2042;47.956;9.222;2022-11-15T02:43:12;1.70;16.30
4054;DHT22;2042;47.956;9.222;2022-11-15T02:46:15;1.70;16.50
4054;DHT22;2042;47.956;9.222;2022-11-15T02:48:43;1.70;16.50
4054;DHT22;2042;47.956;9.222;2022-11-15T02:51:10;1.70;16.50
4054;DHT22;2042;47.956;9.222;2022-11-15T02:53:37;1.70;16.50
4054;DHT22;2042;47.956;9.222;2022-11-15T02:56:03;1.80;16.60
4054;DHT22;2042;47.956;9.222;2022-11-15T03:04:29;1.80;16.60
4054;DHT22;2042;47.956;9.222;2022-11-15T03:07:06;1.90;16.70
4054;DHT22;2042;47.956;9.222;2022-11-15T03:09:46;1.90;16.70
4054;DHT22;2042;47.956;9.222;2022-11-15T03:12:34;1.90;16.70
4054;DHT22;2042;47.956;9.222;2022-11-15T03:15:08;1.90;16.70
4054;DHT22;2042;47.956;9.222;2022-11-15T03:17:43;1.90;16.70
4054;DHT22;2042;47.956;9.222;2022-11-15T03:20:13;1.90;16.70
4054;DHT22;2042;47.956;9.222;2022-11-15T03:22:42;1.90;16.80
4054;DHT22;2042;47.956;9.222;2022-11-15T03:25:11;1.80;16.70
4054;DHT22;2042;47.956;9.222;2022-11-15T03:27:41;1.70;16.70
4054;DHT22;2042;47.956;9.222;2022-11-15T03:30:09;1.70;16.60
4054;DHT22;2042;47.956;9.222;2022-11-15T03:32:40;1.60;16.50
4054;DHT22;2042;47.956;9.222;2022-11-15T03:35:14;1.60;16.50
4054;DHT22;2042;47.956;9.222;2022-11-15T03:37:48;1.50;16.50
4054;DHT22;2042;47.956;9.222;2022-11-15T03:40:16;1.40;16.40
4054;DHT22;2042;47.956;9.222;2022-11-15T03:45:31;1.30;16.30
4054;DHT22;2042;47.956;9.222;2022-11-15T03:48:20;1.30;16.20
4054;DHT22;2042;47.956;9.222;2022-11-15T03:50:47;1.30;16.20
4054;DHT22;2042;47.956;9.222;2022-11-15T03:53:13;1.20;16.20
4054;DHT22;2042;47.956;9.222;2022-11-15T03:55:39;1.10;16.10
4054;DHT22;2042;47.956;9.222;2022-11-15T03:58:05;1.10;16.10
4054;DHT22;2042;47.956;9.222;2022-11-15T04:00:31;1.10;16.20
4054;DHT22;2042;47.956;9.222;2022-11-15T04:02:57;1.10;16.10
4054;DHT22;2042;47.956;9.222;2022-11-15T04:05:23;1.10;16.70
4054;DHT22;2042;47.956;9.222;2022-11-15T04:07:48;1.20;16.20
4054;DHT22;2042;47.956;9.222;2022-11-15T04:10:14;1.20;16.20
4054;DHT22;2042;47.956;9.222;2022-11-15T04:12:42;1.30;16.30
4054;DHT22;2042;47.956;9.222;2022-11-15T04:15:11;1.40;16.30
4054;DHT22;2042;47.956;9.222;2022-11-15T04:17:42;1.40;16.40
4054;DHT22;2042;47.956;9.222;2022-11-15T04:22:58;1.50;16.50
4054;DHT22;2042;47.956;9.222;2022-11-15T04:25:44;1.50;16.40
4054;DHT22;2042;47.956;9.222;2022-11-15T04:28:10;1.60;16.50
4054;DHT22;2042;47.956;9.222;2022-11-15T04:30:36;1.60;16.50
4054;DHT22;2042;47.956;9.222;2022-11-15T04:33:02;1.70;16.60
4054;DHT22;2042;47.956;9.222;2022-11-15T04:35:28;1.70;16.60
4054;DHT22;2042;47.956;9.222;2022-11-15T04:37:54;1.80;16.70
4054;DHT22;2042;47.956;9.222;2022-11-15T04:40:20;1.80;16.70
4054;DHT22;2042;47.956;9.222;2022-11-15T04:42:45;1.90;16.70
4054;DHT22;2042;47.956;9.222;2022-11-15T04:45:11;1.90;16.70
4054;DHT22;2042;47.956;9.222;2022-11-15T04:47:37;1.90;16.90
4054;DHT22;2042;47.956;9.222;2022-11-15T04:50:03;1.90;16.90
4054;DHT22;2042;47.956;9.222;2022-11-15T04:52:29;1.90;16.90
4054;DHT22;2042;47.956;9.222;2022-11-15T04:54:54;1.90;16.90
4054;DHT22;2042;47.956;9.222;2022-11-15T04:57:20;1.90;16.90
4054;DHT22;2042;47.956;9.222;2022-11-15T04:59:46;1.90;16.90
4054;DHT22;2042;47.956;9.222;2022-11-15T05:02:12;1.90;16.90
4054;DHT22;2042;47.956;9.222;2022-11-15T05:04:37;2.00;16.90
4054;DHT22;2042;47.956;9.222;2022-11-15T05:07:03;2.10;17.00
4054;DHT22;2042;47.956;9.222;2022-11-15T05:09:31;2.10;17.00
4054;DHT22;2042;47.956;9.222;2022-11-15T05:11:57;2.20;17.10
4054;DHT22;2042;47.956;9.222;2022-11-15T05:14:23;2.20;17.10
4054;DHT22;2042;47.956;9.222;2022-11-15T05:16:48;2.20;17.10
4054;DHT22;2042;47.956;9.222;2022-11-15T05:19:14;2.20;17.20
4054;DHT22;2042;47.956;9.222;2022-11-15T05:21:40;2.10;17.20
4054;DHT22;2042;47.956;9.222;2022-11-15T05:24:06;2.10;17.20
4054;DHT22;2042;47.956;9.222;2022-11-15T05:26:32;2.00;17.10
4054;DHT22;2042;47.956;9.222;2022-11-15T05:28:58;2.00;17.10
4054;DHT22;2042;47.956;9.222;2022-11-15T05:31:25;1.90;17.00
4054;DHT22;2042;47.956;9.222;2022-11-15T05:33:51;1.90;17.00
4054;DHT22;2042;47.956;9.222;2022-11-15T05:36:31;1.80;17.00
4054;DHT22;2042;47.956;9.222;2022-11-15T05:38:58;1.70;16.80
4054;DHT22;2042;47.956;9.222;2022-11-15T05:41:39;1.60;16.70
4054;DHT22;2042;47.956;9.222;2022-11-15T05:44:07;1.50;16.60
4054;DHT22;2042;47.956;9.222;2022-11-15T05:46:35;1.40;16.50
4054;DHT22;2042;47.956;9.222;2022-11-15T05:49:05;1.30;16.50
4054;DHT22;2042;47.956;9.222;2022-11-15T05:51:33;1.30;16.50
4054;DHT22;2042;47.956;9.222;2022-11-15T05:54:00;1.20;16.50
4054;DHT22;2042;47.956;9.222;2022-11-15T05:56:26;1.20;16.40
4054;DHT22;2042;47.956;9.222;2022-11-15T05:58:57;1.10;16.30
4054;DHT22;2042;47.956;9.222;2022-11-15T06:01:24;1.10;16.30
4054;DHT22;2042;47.956;9.222;2022-11-15T06:03:50;1.00;16.70
4054;DHT22;2042;47.956;9.222;2022-11-15T06:06:16;1.00;16.20
4054;DHT22;2042;47.956;9.222;2022-11-15T06:08:41;1.00;16.20
4054;DHT22;2042;47.956;9.222;2022-11-15T06:11:07;0.90;16.10
4054;DHT22;2042;47.956;9.222;2022-11-15T06:13:34;0.90;16.10
4054;DHT22;2042;47.956;9.222;2022-11-15T06:16:00;0.90;16.00
4054;DHT22;2042;47.956;9.222;2022-11-15T06:18:25;0.90;16.00
4054;DHT22;2042;47.956;9.222;2022-11-15T06:20:51;0.80;15.90
4054;DHT22;2042;47.956;9.222;2022-11-15T06:23:17;0.80;15.90
4054;DHT22;2042;47.956;9.222;2022-11-15T06:25:43;0.80;16.00
4054;DHT22;2042;47.956;9.222;2022-11-15T06:28:08;0.80;16.00
4054;DHT22;2042;47.956;9.222;2022-11-15T06:30:34;0.80;16.50
4054;DHT22;2042;47.956;9.222;2022-11-15T06:33:04;0.80;16.00
4054;DHT22;2042;47.956;9.222;2022-11-15T06:35:32;0.80;15.90
4054;DHT22;2042;47.956;9.222;2022-11-15T06:38:11;0.90;16.00
4054;DHT22;2042;47.956;9.222;2022-11-15T06:40:37;0.90;16.00
4054;DHT22;2042;47.956;9.222;2022-11-15T06:43:04;0.90;16.00
4054;DHT22;2042;47.956;9.222;2022-11-15T06:45:30;1.00;16.00
4054;DHT22;2042;47.956;9.222;2022-11-15T06:47:57;1.00;16.00
4054;DHT22;2042;47.956;9.222;2022-11-15T06:50:22;1.00;16.00
4054;DHT22;2042;47.956;9.222;2022-11-15T06:52:48;1.00;16.00
4054;DHT22;2042;47.956;9.222;2022-11-15T06:55:14;1.00;16.00
4054;DHT22;2042;47.956;9.222;2022-11-15T06:57:50;1.10;16.10
4054;DHT22;2042;47.956;9.222;2022-11-15T07:00:18;1.10;16.00
4054;DHT22;2042;47.956;9.222;2022-11-15T07:02:45;1.20;16.00
4054;DHT22;2042;47.956;9.222;2022-11-15T07:05:12;1.20;16.10
4054;DHT22;2042;47.956;9.222;2022-11-15T07:07:37;1.30;16.10
4054;DHT22;2042;47.956;9.222;2022-11-15T07:10:03;1.30;16.20
4054;DHT22;2042;47.956;9.222;2022-11-15T07:12:29;1.40;16.20
4054;DHT22;2042;47.956;9.222;2022-11-15T07:14:55;1.50;16.10
4054;DHT22;2042;47.956;9.222;2022-11-15T07:17:20;1.70;16.00
4054;DHT22;2042;47.956;9.222;2022-11-15T07:19:46;2.20;15.70
4054;DHT22;2042;47.956;9.222;2022-11-15T07:22:12;2.30;16.30
4054;DHT22;2042;47.956;9.222;2022-11-15T07:24:37;2.80;17.60
4054;DHT22;2042;47.956;9.222;2022-11-15T07:27:03;3.40;16.60
4054;DHT22;2042;47.956;9.222;2022-11-15T07:29:28;4.10;16.20
4054;DHT22;2042;47.956;9.222;2022-11-15T07:31:54;4.60;16.80
4054;DHT22;2042;47.956;9.222;2022-11-15T07:34:20;5.00;17.60
4054;DHT22;2042;47.956;9.222;2022-11-15T07:36:46;5.40;18.20
4054;DHT22;2042;47.956;9.222;2022-11-15T07:39:11;5.70;19.30
4054;DHT22;2042;47.956;9.222;2022-11-15T07:41:37;5.90;20.90
4054;DHT22;2042;47.956;9.222;2022-11-15T07:44:04;6.40;21.60
4054;DHT22;2042;47.956;9.222;2022-11-15T07:46:31;7.20;22.90
4054;DHT22;2042;47.956;9.222;2022-11-15T07:48:56;7.70;24.30
4054;DHT22;2042;47.956;9.222;2022-11-15T07:51:22;8.10;23.60
4054;DHT22;2042;47.956;9.222;2022-11-15T07:53:48;8.80;23.90
4054;DHT22;2042;47.956;9.222;2022-11-15T07:56:13;9.60;18.20
4054;DHT22;2042;47.956;9.222;2022-11-15T07:58:39;10.50;12.80
4054;DHT22;2042;47.956;9.222;2022-11-15T08:01:07;11.30;1.00
4054;DHT22;2042;47.956;9.222;2022-11-15T08:03:33;11.80;1.00
4054;DHT22;2042;47.956;9.222;2022-11-15T08:05:59;12.60;1.00
4054;DHT22;2042;47.956;9.222;2022-11-15T08:08:24;13.00;1.00
4054;DHT22;2042;47.956;9.222;2022-11-15T08:10:50;12.40;1.00
4054;DHT22;2042;47.956;9.222;2022-11-15T08:13:16;12.40;1.00
4054;DHT22;2042;47.956;9.222;2022-11-15T08:15:42;12.80;1.00
4054;DHT22;2042;47.956;9.222;2022-11-15T08:18:14;12.50;1.00
4054;DHT22;2042;47.956;9.222;2022-11-15T08:20:40;11.60;1.00
4054;DHT22;2042;47.956;9.222;2022-11-15T08:23:07;10.70;1.00
4054;DHT22;2042;47.956;9.222;2022-11-15T08:25:35;10.10;1.00
4054;DHT22;2042;47.956;9.222;2022-11-15T08:28:04;9.70;1.00
4054;DHT22;2042;47.956;9.222;2022-11-15T08:30:30;9.50;1.00
4054;DHT22;2042;47.956;9.222;2022-11-15T08:32:57;9.40;1.00
4054;DHT22;2042;47.956;9.222;2022-11-15T08:35:24;9.30;1.00
4054;DHT22;2042;47.956;9.222;2022-11-15T08:37:51;9.60;1.00
4054;DHT22;2042;47.956;9.222;2022-11-15T08:40:17;10.60;1.00
4054;DHT22;2042;47.956;9.222;2022-11-15T08:42:46;12.20;1.00
4054;DHT22;2042;47.956;9.222;2022-11-15T08:45:11;13.30;1.00
4054;DHT22;2042;47.956;9.222;2022-11-15T08:47:37;14.50;1.00
4054;DHT22;2042;47.956;9.222;2022-11-15T08:50:03;16.40;1.00
4054;DHT22;2042;47.956;9.222;2022-11-15T08:52:28;17.80;1.00
4054;DHT22;2042;47.956;9.222;2022-11-15T08:54:54;18.60;1.00
4054;DHT22;2042;47.956;9.222;2022-11-15T08:57:20;18.40;1.00
4054;DHT22;2042;47.956;9.222;2022-11-15T08:59:45;18.80;1.00
4054;DHT22;2042;47.956;9.222;2022-11-15T09:02:14;19.70;1.00
4054;DHT22;2042;47.956;9.222;2022-11-15T09:04:44;20.50;1.00
4054;DHT22;2042;47.956;9.222;2022-11-15T09:07:10;21.30;1.00
4054;DHT22;2042;47.956;9.222;2022-11-15T09:09:37;21.60;1.00
4054;DHT22;2042;47.956;9.222;2022-11-15T09:12:04;21.50;1.00
4054;DHT22;2042;47.956;9.222;2022-11-15T09:14:31;21.80;1.00
4054;DHT22;2042;47.956;9.222;2022-11-15T09:16:56;22.60;1.00
4054;DHT22;2042;47.956;9.222;2022-11-15T09:19:22;23.40;1.00
4054;DHT22;2042;47.956;9.222;2022-11-15T09:21:48;23.60;1.00
4054;DHT22;2042;47.956;9.222;2022-11-15T09:24:13;23.70;1.00
4054;DHT22;2042;47.956;9.222;2022-11-15T09:26:40;23.70;1.00
4054;DHT22;2042;47.956;9.222;2022-11-15T09:29:05;23.30;1.00
4054;DHT22;2042;47.956;9.222;2022-11-15T09:31:31;23.00;1.00
4054;DHT22;2042;47.956;9.222;2022-11-15T09:33:57;23.00;1.00
4054;DHT22;2042;47.956;9.222;2022-11-15T09:36:23;23.50;1.00
4054;DHT22;2042;47.956;9.222;2022-11-15T09:38:49;24.30;1.00
4054;DHT22;2042;47.956;9.222;2022-11-15T09:41:21;24.90;1.00
4054;DHT22;2042;47.956;9.222;2022-11-15T09:44:09;25.20;1.00
4054;DHT22;2042;47.956;9.222;2022-11-15T09:49:24;25.60;1.00
4054;DHT22;2042;47.956;9.222;2022-11-15T09:51:52;26.00;1.00
4054;DHT22;2042;47.956;9.222;2022-11-15T09:56:47;27.50;1.00
4054;DHT22;2042;47.956;9.222;2022-11-15T10:04:45;29.10;1.00
4054;DHT22;2042;47.956;9.222;2022-11-15T10:10:46;29.00;1.00
4054;DHT22;2042;47.956;9.222;2022-11-15T10:13:33;28.80;1.00
4054;DHT22;2042;47.956;9.222;2022-11-15T10:16:29;28.40;1.00
4054;DHT22;2042;47.956;9.222;2022-11-15T10:18:55;27.90;1.00
4054;DHT22;2042;47.956;9.222;2022-11-15T10:24:35;27.80;1.00
4054;DHT22;2042;47.956;9.222;2022-11-15T10:27:10;27.90;1.00
4054;DHT22;2042;47.956;9.222;2022-11-15T10:29:43;28.00;1.00
4054;DHT22;2042;47.956;9.222;2022-11-15T10:32:14;27.60;1.00
4054;DHT22;2042;47.956;9.222;2022-11-15T10:34:40;27.60;1.00
4054;DHT22;2042;47.956;9.222;2022-11-15T10:37:06;27.40;1.00
4054;DHT22;2042;47.956;9.222;2022-11-15T10:39:32;26.30;1.00
4054;DHT22;2042;47.956;9.222;2022-11-15T10:42:27;24.70;1.00
4054;DHT22;2042;47.956;9.222;2022-11-15T10:44:53;22.90;1.00
4054;DHT22;2042;47.956;9.222;2022-11-15T10:47:29;21.40;1.00
4054;DHT22;2042;47.956;9.222;2022-11-15T10:50:02;20.30;1.00
4054;DHT22;2042;47.956;9.222;2022-11-15T10:52:30;19.40;1.00
4054;DHT22;2042;47.956;9.222;2022-11-15T10:55:02;18.60;1.00
4054;DHT22;2042;47.956;9.222;2022-11-15T10:57:31;17.90;1.00
4054;DHT22;2042;47.956;9.222;2022-11-15T11:00:01;17.30;1.00
4054;DHT22;2042;47.956;9.222;2022-11-15T11:02:34;16.80;1.00
4054;DHT22;2042;47.956;9.222;2022-11-15T11:05:03;16.50;1.00
4054;DHT22;2042;47.956;9.222;2022-11-15T11:07:31;16.30;1.00
4054;DHT22;2042;47.956;9.222;2022-11-15T11:10:20;16.30;1.00
4054;DHT22;2042;47.956;9.222;2022-11-15T11:12:46;16.20;1.00
4054;DHT22;2042;47.956;9.222;2022-11-15T11:15:14;16.20;1.00
4054;DHT22;2042;47.956;9.222;2022-11-15T11:18:10;16.10;1.00
4054;DHT22;2042;47.956;9.222;2022-11-15T11:20:46;15.90;1.00
4054;DHT22;2042;47.956;9.222;2022-11-15T11:31:32;15.10;1.00
4054;DHT22;2042;47.956;9.222;2022-11-15T11:34:32;15.00;1.00
4054;DHT22;2042;47.956;9.222;2022-11-15T11:43:02;14.70;1.00
4054;DHT22;2042;47.956;9.222;2022-11-15T11:45:50;14.30;1.00
4054;DHT22;2042;47.956;9.222;2022-11-15T11:48:38;13.80;1.00
4054;DHT22;2042;47.956;9.222;2022-11-15T11:51:14;13.60;1.00
4054;DHT22;2042;47.956;9.222;2022-11-15T11:53:47;13.30;1.00
4054;DHT22;2042;47.956;9.222;2022-11-15T11:56:27;13.10;1.00
4054;DHT22;2042;47.956;9.222;2022-11-15T11:58:55;12.90;1.00
4054;DHT22;2042;47.956;9.222;2022-11-15T12:01:42;12.80;1.00
4054;DHT22;2042;47.956;9.222;2022-11-15T12:04:13;12.70;1.00
4054;DHT22;2042;47.956;9.222;2022-11-15T12:07:04;12.80;1.00
4054;DHT22;2042;47.956;9.222;2022-11-15T12:09:41;13.10;1.00
4054;DHT22;2042;47.956;9.222;2022-11-15T12:12:11;13.20;1.00
4054;DHT22;2042;47.956;9.222;2022-11-15T12:15:04;13.30;1.00
4054;DHT22;2042;47.956;9.222;2022-11-15T12:17:38;13.20;1.00
4054;DHT22;2042;47.956;9.222;2022-11-15T12:20:24;13.20;1.00
4054;DHT22;2042;47.956;9.222;2022-11-15T12:23:15;13.20;1.00
4054;DHT22;2042;47.956;9.222;2022-11-15T12:31:47;12.90;1.00
4054;DHT22;2042;47.956;9.222;2022-11-15T12:36:47;12.80;1.00
4054;DHT22;2042;47.956;9.222;2022-11-15T12:39:14;12.50;1.00
4054;DHT22;2042;47.956;9.222;2022-11-15T12:42:23;12.40;1.00
4054;DHT22;2042;47.956;9.222;2022-11-15T12:47:21;12.20;1.00
4054;DHT22;2042;47.956;9.222;2022-11-15T12:49:48;12.20;1.00
4054;DHT22;2042;47.956;9.222;2022-11-15T12:52:15;12.10;1.00
4054;DHT22;2042;47.956;9.222;2022-11-15T13:02:45;11.80;1.00
4054;DHT22;2042;47.956;9.222;2022-11-15T13:17:52;11.80;1.00
4054;DHT22;2042;47.956;9.222;2022-11-15T13:20:30;11.70;1.00
4054;DHT22;2042;47.956;9.222;2022-11-15T13:23:15;11.70;1.00
4054;DHT22;2042;47.956;9.222;2022-11-15T13:28:31;11.70;1.00
4054;DHT22;2042;47.956;9.222;2022-11-15T13:33:47;11.70;1.00
4054;DHT22;2042;47.956;9.222;2022-11-15T13:36:28;11.70;1.00
4054;DHT22;2042;47.956;9.222;2022-11-15T13:39:01;11.60;1.00
4054;DHT22;2042;47.956;9.222;2022-11-15T13:41:33;11.50;1.00
4054;DHT22;2042;47.956;9.222;2022-11-15T13:43:59;11.40;1.00
4054;DHT22;2042;47.956;9.222;2022-11-15T13:49:04;11.40;1.00
4054;DHT22;2042;47.956;9.222;2022-11-15T13:54:24;11.20;1.00
4054;DHT22;2042;47.956;9.222;2022-11-15T13:57:02;11.30;1.00
4054;DHT22;2042;47.956;9.222;2022-11-15T13:59:31;11.30;1.00
4054;DHT22;2042;47.956;9.222;2022-11-15T14:02:01;11.30;1.00
4054;DHT22;2042;47.956;9.222;2022-11-15T14:04:28;11.20;1.00
4054;DHT22;2042;47.956;9.222;2022-11-15T14:06:57;11.10;1.00
4054;DHT22;2042;47.956;9.222;2022-11-15T14:09:39;11.00;1.00
4054;DHT22;2042;47.956;9.222;2022-11-15T14:12:31;10.90;1.00
4054;DHT22;2042;47.956;9.222;2022-11-15T14:14:58;10.90;1.00
4054;DHT22;2042;47.956;9.222;2022-11-15T14:19:57;10.80;1.00
4054;DHT22;2042;47.956;9.222;2022-11-15T14:22:27;10.80;1.00
4054;DHT22;2042;47.956;9.222;2022-11-15T14:27:38;10.80;1.00
4054;DHT22;2042;47.956;9.222;2022-11-15T14:30:04;10.80;1.00
4054;DHT22;2042;47.956;9.222;2022-11-15T14:32:43;10.70;1.00
4054;DHT22;2042;47.956;9.222;2022-11-15T14:35:14;10.70;1.00
4054;DHT22;2042;47.956;9.222;2022-11-15T14:37:40;10.60;1.00
4054;DHT22;2042;47.956;9.222;2022-11-15T14:40:06;10.60;1.00
4054;DHT22;2042;47.956;9.222;2022-11-15T14:42:34;10.50;1.00
4054;DHT22;2042;47.956;9.222;2022-11-15T14:45:00;10.40;1.00
4054;DHT22;2042;47.956;9.222;2022-11-15T14:47:26;10.40;1.00
4054;DHT22;2042;47.956;9.222;2022-11-15T14:49:51;10.30;1.00
4054;DHT22;2042;47.956;9.222;2022-11-15T14:54:48;10.30;1.00
4054;DHT22;2042;47.956;9.222;2022-11-15T14:57:14;10.30;1.00
4054;DHT22;2042;47.956;9.222;2022-11-15T14:59:40;10.20;1.00
4054;DHT22;2042;47.956;9.222;2022-11-15T15:02:21;10.20;1.00
4054;DHT22;2042;47.956;9.222;2022-11-15T15:04:48;10.20;1.00
4054;DHT22;2042;47.956;9.222;2022-11-15T15:07:14;10.10;1.00
4054;DHT22;2042;47.956;9.222;2022-11-15T15:09:41;10.00;1.00
4054;DHT22;2042;47.956;9.222;2022-11-15T15:12:18;10.00;1.00
4054;DHT22;2042;47.956;9.222;2022-11-15T15:14:45;10.00;1.00
4054;DHT22;2042;47.956;9.222;2022-11-15T15:17:11;10.00;1.00
4054;DHT22;2042;47.956;9.222;2022-11-15T15:19:36;9.90;1.00
4054;DHT22;2042;47.956;9.222;2022-11-15T15:22:02;9.80;1.00
4054;DHT22;2042;47.956;9.222;2022-11-15T15:24:28;9.80;1.00
4054;DHT22;2042;47.956;9.222;2022-11-15T15:26:53;9.60;1.00
4054;DHT22;2042;47.956;9.222;2022-11-15T15:29:19;9.50;1.00
4054;DHT22;2042;47.956;9.222;2022-11-15T15:31:45;9.40;1.00
4054;DHT22;2042;47.956;9.222;2022-11-15T15:34:10;9.40;1.00
4054;DHT22;2042;47.956;9.222;2022-11-15T15:36:36;9.20;1.00
4054;DHT22;2042;47.956;9.222;2022-11-15T15:39:01;9.20;1.00
4054;DHT22;2042;47.956;9.222;2022-11-15T15:41:27;9.10;1.00
4054;DHT22;2042;47.956;9.222;2022-11-15T15:43:53;9.00;1.00
4054;DHT22;2042;47.956;9.222;2022-11-15T15:46:19;9.00;1.00
4054;DHT22;2042;47.956;9.222;2022-11-15T15:48:46;8.90;1.00
4054;DHT22;2042;47.956;9.222;2022-11-15T15:51:12;8.80;1.00
4054;DHT22;2042;47.956;9.222;2022-11-15T15:53:38;8.80;1.00
4054;DHT22;2042;47.956;9.222;2022-11-15T15:56:04;8.60;1.00
4054;DHT22;2042;47.956;9.222;2022-11-15T15:58:33;8.60;1.00
4054;DHT22;2042;47.956;9.222;2022-11-15T16:00:59;8.60;1.00
4054;DHT22;2042;47.956;9.222;2022-11-15T16:03:25;8.50;1.00
4054;DHT22;2042;47.956;9.222;2022-11-15T16:05:52;8.40;1.00
4054;DHT22;2042;47.956;9.222;2022-11-15T16:08:20;8.40;1.00
4054;DHT22;2042;47.956;9.222;2022-11-15T16:10:46;8.30;1.00
4054;DHT22;2042;47.956;9.222;2022-11-15T16:13:12;8.30;1.00
4054;DHT22;2042;47.956;9.222;2022-11-15T16:15:38;8.10;1.00
4054;DHT22;2042;47.956;9.222;2022-11-15T16:18:05;8.00;1.00
4054;DHT22;2042;47.956;9.222;2022-11-15T16:23:04;8.00;1.00
4054;DHT22;2042;47.956;9.222;2022-11-15T16:25:34;8.00;1.00
4054;DHT22;2042;47.956;9.222;2022-11-15T16:28:02;8.00;1.00
4054;DHT22;2042;47.956;9.222;2022-11-15T16:30:28;8.00;1.00
4054;DHT22;2042;47.956;9.222;2022-11-15T16:32:53;8.00;1.00
4054;DHT22;2042;47.956;9.222;2022-11-15T16:35:20;8.00;1.00
4054;DHT22;2042;47.956;9.222;2022-11-15T16:37:46;8.00;1.00
4054;DHT22;2042;47.956;9.222;2022-11-15T16:40:30;8.00;1.00
4054;DHT22;2042;47.956;9.222;2022-11-15T16:42:57;7.90;1.00
4054;DHT22;2042;47.956;9.222;2022-11-15T16:45:25;7.90;1.00
4054;DHT22;2042;47.956;9.222;2022-11-15T16:47:53;7.80;1.00
4054;DHT22;2042;47.956;9.222;2022-11-15T16:50:25;7.80;1.00
4054;DHT22;2042;47.956;9.222;2022-11-15T16:52:55;7.80;1.00
4054;DHT22;2042;47.956;9.222;2022-11-15T16:55:24;7.80;1.00
4054;DHT22;2042;47.956;9.222;2022-11-15T16:57:51;7.80;1.00
4054;DHT22;2042;47.956;9.222;2022-11-15T17:00:18;7.80;1.00
4054;DHT22;2042;47.956;9.222;2022-11-15T17:02:46;7.80;1.00
4054;DHT22;2042;47.956;9.222;2022-11-15T17:05:13;7.70;1.00
4054;DHT22;2042;47.956;9.222;2022-11-15T17:07:40;7.70;1.00
4054;DHT22;2042;47.956;9.222;2022-11-15T17:10:06;7.70;1.00
4054;DHT22;2042;47.956;9.222;2022-11-15T17:12:34;7.70;1.00
4054;DHT22;2042;47.956;9.222;2022-11-15T17:15:00;7.60;1.00
4054;DHT22;2042;47.956;9.222;2022-11-15T17:17:26;7.60;1.50
4054;DHT22;2042;47.956;9.222;2022-11-15T17:19:52;7.60;2.40
4054;DHT22;2042;47.956;9.222;2022-11-15T17:22:19;7.60;3.10
4054;DHT22;2042;47.956;9.222;2022-11-15T17:24:46;7.60;3.80
4054;DHT22;2042;47.956;9.222;2022-11-15T17:27:11;7.70;4.40
4054;DHT22;2042;47.956;9.222;2022-11-15T17:29:37;7.70;4.60
4054;DHT22;2042;47.956;9.222;2022-11-15T17:32:03;7.70;5.00
4054;DHT22;2042;47.956;9.222;2022-11-15T17:34:28;7.70;5.40
4054;DHT22;2042;47.956;9.222;2022-11-15T17:36:54;7.70;5.70
4054;DHT22;2042;47.956;9.222;2022-11-15T17:39:20;7.70;6.20
4054;DHT22;2042;47.956;9.222;2022-11-15T17:41:48;7.70;6.50
4054;DHT22;2042;47.956;9.222;2022-11-15T17:44:13;7.70;6.90
4054;DHT22;2042;47.956;9.222;2022-11-15T17:46:39;7.70;7.50
4054;DHT22;2042;47.956;9.222;2022-11-15T17:49:05;7.70;7.90
4054;DHT22;2042;47.956;9.222;2022-11-15T17:51:31;7.70;8.10
4054;DHT22;2042;47.956;9.222;2022-11-15T17:53:56;7.70;8.30
4054;DHT22;2042;47.956;9.222;2022-11-15T17:56:24;7.70;8.40
4054;DHT22;2042;47.956;9.222;2022-11-15T17:58:52;7.70;8.70
4054;DHT22;2042;47.956;9.222;2022-11-15T18:01:29;7.70;8.60
4054;DHT22;2042;47.956;9.222;2022-11-15T18:03:56;7.70;8.90
4054;DHT22;2042;47.956;9.222;2022-11-15T18:06:25;7.60;9.10
4054;DHT22;2042;47.956;9.222;2022-11-15T18:08:53;7.60;9.20
4054;DHT22;2042;47.956;9.222;2022-11-15T18:11:23;7.60;9.40
4054;DHT22;2042;47.956;9.222;2022-11-15T18:13:55;7.60;9.60
4054;DHT22;2042;47.956;9.222;2022-11-15T18:16:22;7.60;9.60
4054;DHT22;2042;47.956;9.222;2022-11-15T18:18:52;7.60;9.80
4054;DHT22;2042;47.956;9.222;2022-11-15T18:21:20;7.60;9.90
4054;DHT22;2042;47.956;9.222;2022-11-15T18:23:47;7.60;9.90